Mc Alester Regional Airport
KMLC : now visible

Airfield :











YOU CAN JOIN US ON...

 
LOGIN :

Register | Disclaimer

   EN    FR    IT 

 









Legend :    VFR   Marginal VFR   IFR   Intensive IFR   Very Intensive IFR
Visi :
Ceiling :
>= 8 km
>= 3000ft
5 to 8 km
1000 to 3000 ft
1500m to 5 km
500 to 1000 ft
800 to 1500m
200 to 500 ft
< 800m
< 200 ft
Symbols :   Thunderstorms  Fog  Heavy snow  Heavy precipitations  Wind > 20 kt






- Airport Elevation : 770 ft


KMLC - Mc Alester Regional

CURRENT METAR :
  • 301053Z AUTO 35013G21KT 10SM OVC006 M04/M06 A3030 RMK AO2 SLP269 T10441056

EXPIRED METARs :
  • 300953Z AUTO 01011KT 10SM OVC006 M04/M06 A3029 RMK AO2 SLP263 I1000 T10441056
  • 300905Z AUTO 36015KT 5SM BR OVC006 M04/M06 A3028 RMK AO2 T10441056
  • 300853Z AUTO 01014KT 7SM OVC005 M04/M06 A3028 RMK AO2 SLP261 I1000 I3001 T10441056 53004

TAF KMLC
Valid from the 30 at 08:00 until the 31 at 06:00 UTC


300805Z 3008/3106 36010KT P6SM OVC005
TEMPO 3009/3013 4SM -FZDZ BR OVC003
FM301300 01012KT P6SM OVC008
TEMPO 3014/3018 6SM -FZRAPL
FM310200 01010KT P6SM OVC012
KZFW FIR / North America



MET'MAP, your aeronautical weather chart ! - Copyright ORBIFLY December 2007 - Disclaimer

ORBIFLY MET'MAP TEAM :

Programming & Development : Alexandra Zaïnal
Original concept : Baudouin d'Aumeries
Technical & hardware support : Manuel Goepfert
Assistance : Marc-Olivier Méhu




SOURCES & CREDITS :

   NOAA       Earth
Advisory